Time;durP1;ratioP1;P1;durP2;ratioP2;P2;SDS_P1;SDS_P2;PMS_P1;PMS_P2;Temp;Humidity;BMP_temperature;BMP_pressure;BME280_temperature;BME280_humidity;BME280_pressure;Samples;Min_cycle;Max_cycle;Signal;HPM_P1;HPM_P2
2024/02/24 00:00:37;;;;;;;0.45;0.40;;;22.70;45.30;;;;;;5073465;28;20025;-41
2024/02/24 00:03:04;;;;;;;0.43;0.40;;;22.70;45.30;;;;;;5071820;28;20039;-41
2024/02/24 00:05:30;;;;;;;1.00;0.60;;;22.70;45.20;;;;;;5071049;28;20039;-41
2024/02/24 00:07:56;;;;;;;0.98;0.57;;;22.70;45.20;;;;;;5073683;28;20036;-41
2024/02/24 00:10:22;;;;;;;0.63;0.50;;;22.70;45.30;;;;;;5074563;28;20033;-41
2024/02/24 00:12:49;;;;;;;0.65;0.50;;;22.70;45.20;;;;;;5071606;28;20035;-41
2024/02/24 00:15:15;;;;;;;0.60;0.60;;;22.70;45.20;;;;;;5054613;28;20049;-41
2024/02/24 00:17:41;;;;;;;0.80;0.40;;;22.70;45.20;;;;;;5051951;28;20029;-40
2024/02/24 00:20:08;;;;;;;0.80;0.60;;;22.60;45.20;;;;;;5074018;28;20060;-41
2024/02/24 00:22:35;;;;;;;0.68;0.32;;;22.60;45.00;;;;;;5069913;28;20105;-40
2024/02/24 00:25:02;;;;;;;0.50;0.40;;;22.60;45.10;;;;;;5068329;28;20094;-41
2024/02/24 00:27:28;;;;;;;0.60;0.40;;;22.70;45.20;;;;;;5068705;28;20032;-41
2024/02/24 00:29:55;;;;;;;0.75;0.40;;;22.70;45.20;;;;;;5058859;28;20084;-43
2024/02/24 00:32:21;;;;;;;1.00;0.47;;;22.60;45.20;;;;;;5069260;28;20060;-41
2024/02/24 00:34:47;;;;;;;0.60;0.38;;;22.60;45.20;;;;;;5073504;28;20040;-41
2024/02/24 00:37:13;;;;;;;2.85;0.50;;;22.60;45.20;;;;;;5077022;28;20035;-41
2024/02/24 00:39:39;;;;;;;0.60;0.60;;;22.60;45.10;;;;;;5075210;28;20037;-39
2024/02/24 00:42:07;;;;;;;1.55;0.40;;;22.60;45.10;;;;;;5069227;28;20054;-39
2024/02/24 00:44:33;;;;;;;1.05;0.50;;;22.60;45.10;;;;;;5065833;28;20054;-40
2024/02/24 00:46:59;;;;;;;0.88;0.40;;;22.60;45.30;;;;;;5079439;28;20028;-39
2024/02/24 00:49:25;;;;;;;0.32;0.30;;;22.60;45.20;;;;;;5080073;28;20123;-41
2024/02/24 00:51:52;;;;;;;0.77;0.40;;;22.60;45.20;;;;;;5075391;28;20031;-39
2024/02/24 00:54:18;;;;;;;1.77;0.40;;;22.60;45.30;;;;;;5081870;28;20039;-41
2024/02/24 00:56:44;;;;;;;1.50;0.43;;;22.60;45.20;;;;;;5081562;28;20024;-42
2024/02/24 00:59:10;;;;;;;1.15;0.68;;;22.50;45.20;;;;;;5082628;28;20063;-42
2024/02/24 01:01:37;;;;;;;0.60;0.47;;;22.50;45.20;;;;;;5079216;28;20591;-41
2024/02/24 01:04:03;;;;;;;0.98;0.40;;;22.50;45.10;;;;;;5082974;28;20047;-41
2024/02/24 01:06:29;;;;;;;1.10;0.40;;;22.50;45.10;;;;;;5071682;28;20053;-42
2024/02/24 01:08:55;;;;;;;1.75;0.40;;;22.60;45.30;;;;;;5062000;28;20026;-41
2024/02/24 01:11:21;;;;;;;0.77;0.40;;;22.60;45.20;;;;;;5060648;28;20087;-40
2024/02/24 01:13:47;;;;;;;1.75;0.40;;;22.50;45.10;;;;;;5061800;28;20037;-41
2024/02/24 01:16:13;;;;;;;0.52;0.30;;;22.50;45.10;;;;;;5061320;28;20024;-41
2024/02/24 01:18:40;;;;;;;0.60;0.50;;;22.50;45.20;;;;;;5059792;28;20037;-41
2024/02/24 01:21:06;;;;;;;1.58;0.40;;;22.50;45.10;;;;;;5060235;28;20029;-41
2024/02/24 01:23:32;;;;;;;3.22;0.40;;;22.40;45.00;;;;;;5061971;28;20049;-40
2024/02/24 01:25:58;;;;;;;1.20;0.47;;;22.50;45.10;;;;;;5062456;28;20032;-41
2024/02/24 01:28:24;;;;;;;0.32;0.30;;;22.50;45.20;;;;;;5061549;28;20124;-41
2024/02/24 01:30:51;;;;;;;0.82;0.40;;;22.50;45.10;;;;;;5061600;28;20037;-41
2024/02/24 01:33:17;;;;;;;1.23;0.50;;;22.50;45.20;;;;;;5061290;28;20085;-43
2024/02/24 01:35:43;;;;;;;1.67;0.70;;;22.50;45.10;;;;;;5056874;28;20806;-42
2024/02/24 01:38:09;;;;;;;0.70;0.38;;;22.50;45.10;;;;;;5062053;28;20051;-41
2024/02/24 01:40:35;;;;;;;0.40;0.30;;;22.40;45.00;;;;;;5056479;28;20043;-42
2024/02/24 01:43:02;;;;;;;0.65;0.50;;;22.40;45.00;;;;;;5054652;28;20039;-42
2024/02/24 01:45:29;;;;;;;0.40;0.30;;;22.40;45.20;;;;;;5052997;28;20493;-42
2024/02/24 01:47:56;;;;;;;0.50;0.43;;;22.50;45.30;;;;;;5056511;28;20090;-42
2024/02/24 01:50:23;;;;;;;0.68;0.47;;;22.50;45.30;;;;;;5059367;28;20067;-39
2024/02/24 01:52:49;;;;;;;;;;;22.50;45.80;;;;;;5051651;28;20032;-40
2024/02/24 01:55:16;;;;;;;0.40;0.40;;;22.40;45.20;;;;;;5055388;28;19913;-41
2024/02/24 01:57:43;;;;;;;0.40;0.40;;;22.40;45.10;;;;;;5061527;28;20108;-42
2024/02/24 02:00:10;;;;;;;0.50;0.40;;;22.40;45.10;;;;;;5043227;28;20041;-40
2024/02/24 02:02:40;;;;;;;0.30;0.30;;;22.40;45.10;;;;;;5058528;28;20029;-41
2024/02/24 02:05:07;;;;;;;1.27;0.40;;;22.40;45.30;;;;;;5042208;28;20026;-41
2024/02/24 02:07:33;;;;;;;0.30;0.30;;;22.40;45.30;;;;;;5080411;28;20105;-40
2024/02/24 02:10:00;;;;;;;0.40;0.40;;;22.40;45.40;;;;;;5079599;28;20556;-41
2024/02/24 02:12:27;;;;;;;0.47;0.40;;;22.40;45.30;;;;;;5062651;28;20037;-41
2024/02/24 02:14:53;;;;;;;0.60;0.30;;;22.40;45.20;;;;;;5078447;28;20036;-39
2024/02/24 02:17:19;;;;;;;0.70;0.40;;;22.40;45.20;;;;;;5077089;28;20490;-43
2024/02/24 02:19:46;;;;;;;0.47;0.40;;;22.40;45.20;;;;;;5077963;28;20143;-41
2024/02/24 02:22:14;;;;;;;1.02;0.40;;;22.40;45.30;;;;;;5081145;28;20029;-42
2024/02/24 02:24:41;;;;;;;0.85;0.40;;;22.40;45.50;;;;;;5079666;28;20037;-42
2024/02/24 02:27:07;;;;;;;1.17;0.40;;;22.40;45.40;;;;;;5077556;28;20029;-41
2024/02/24 02:29:33;;;;;;;0.60;0.40;;;22.40;45.40;;;;;;5077613;28;20025;-39
2024/02/24 02:32:00;;;;;;;0.30;0.30;;;22.40;45.40;;;;;;5081291;28;20026;-41
2024/02/24 02:34:26;;;;;;;0.60;0.50;;;22.40;45.40;;;;;;5080666;28;20041;-42
2024/02/24 02:36:52;;;;;;;0.40;0.40;;;22.30;45.30;;;;;;5081282;28;20036;-40
2024/02/24 02:39:18;;;;;;;2.33;0.45;;;22.30;45.30;;;;;;5080995;28;20576;-41
2024/02/24 02:41:45;;;;;;;0.95;0.57;;;22.40;45.50;;;;;;5080836;28;20029;-41
2024/02/24 02:44:11;;;;;;;0.60;0.50;;;22.40;45.60;;;;;;5077250;28;20776;-45
2024/02/24 02:46:38;;;;;;;0.70;0.35;;;22.40;45.60;;;;;;5076109;28;20033;-41
2024/02/24 02:49:04;;;;;;;2.50;0.50;;;22.40;45.60;;;;;;5081244;28;20033;-41
2024/02/24 02:51:30;;;;;;;0.88;0.50;;;22.40;45.50;;;;;;5084944;28;20031;-41
2024/02/24 02:53:56;;;;;;;0.85;0.35;;;22.30;45.40;;;;;;5084161;28;20127;-40
2024/02/24 02:56:22;;;;;;;1.40;0.65;;;22.30;45.40;;;;;;5083276;28;20052;-40
2024/02/24 02:58:49;;;;;;;1.20;0.50;;;22.30;45.60;;;;;;5077273;28;20055;-41
2024/02/24 03:01:15;;;;;;;1.25;0.40;;;22.40;45.70;;;;;;5083198;28;20431;-39
2024/02/24 03:03:41;;;;;;;0.98;0.50;;;22.40;45.60;;;;;;5074892;28;20555;-41
2024/02/24 03:06:07;;;;;;;0.70;0.60;;;22.40;45.60;;;;;;5083135;28;20044;-40
2024/02/24 03:08:33;;;;;;;0.70;0.60;;;22.30;45.50;;;;;;5081047;28;20624;-41
2024/02/24 03:11:03;;;;;;;0.47;0.45;;;22.30;45.50;;;;;;5084097;28;20118;-40
2024/02/24 03:13:29;;;;;;;1.70;0.50;;;22.30;45.50;;;;;;5078605;28;20084;-41
2024/02/24 03:15:55;;;;;;;3.08;0.50;;;22.30;45.60;;;;;;5084283;28;20055;-44
2024/02/24 03:18:21;;;;;;;0.80;0.55;;;22.30;45.70;;;;;;5078109;28;20036;-41
2024/02/24 03:20:47;;;;;;;0.88;0.60;;;22.30;45.70;;;;;;5076729;28;20084;-40
2024/02/24 03:23:14;;;;;;;1.42;0.65;;;22.30;45.70;;;;;;5079581;28;20040;-41
2024/02/24 03:25:40;;;;;;;0.63;0.43;;;22.30;45.60;;;;;;5075395;28;20476;-40
2024/02/24 03:28:06;;;;;;;1.23;0.52;;;22.30;45.60;;;;;;5077342;28;20111;-42
2024/02/24 03:30:32;;;;;;;1.30;0.52;;;22.30;45.60;;;;;;5084500;28;20036;-39
2024/02/24 03:33:02;;;;;;;1.25;0.60;;;22.30;45.60;;;;;;5076755;28;20029;-41
2024/02/24 03:35:31;;;;;;;1.00;0.60;;;22.30;45.70;;;;;;5075073;28;20033;-41
2024/02/24 03:37:59;;;;;;;0.80;0.50;;;22.30;45.70;;;;;;5077144;28;20051;-41
2024/02/24 03:40:26;;;;;;;1.70;0.60;;;22.30;45.60;;;;;;5079460;28;20031;-41
2024/02/24 03:42:52;;;;;;;0.75;0.52;;;22.30;45.60;;;;;;5082865;28;20883;-41
2024/02/24 03:45:18;;;;;;;0.85;0.55;;;22.30;45.60;;;;;;5073782;28;20017;-39
2024/02/24 03:47:46;;;;;;;1.05;0.60;;;22.20;45.50;;;;;;5075838;28;20035;-41
2024/02/24 03:50:12;;;;;;;0.65;0.60;;;22.20;45.50;;;;;;5070405;28;20052;-41
2024/02/24 03:52:39;;;;;;;0.68;0.50;;;22.20;45.60;;;;;;5074942;28;20063;-39
2024/02/24 03:55:05;;;;;;;;;;;22.30;45.70;;;;;;5076480;28;20082;-39
2024/02/24 03:57:31;;;;;;;0.63;0.50;;;22.30;45.70;;;;;;5078030;28;19912;-40
2024/02/24 03:59:59;;;;;;;0.90;0.50;;;22.30;45.60;;;;;;5080824;28;20765;-40
2024/02/24 04:02:25;;;;;;;0.95;0.57;;;22.30;45.60;;;;;;5072801;28;20057;-40
2024/02/24 04:04:52;;;;;;;0.90;0.70;;;22.20;45.50;;;;;;5082392;28;20044;-41
2024/02/24 04:07:18;;;;;;;1.83;0.65;;;22.20;45.50;;;;;;5080982;28;20048;-41
2024/02/24 04:09:44;;;;;;;1.33;0.75;;;22.20;45.60;;;;;;5078250;28;20047;-38
2024/02/24 04:12:10;;;;;;;0.80;0.70;;;22.20;45.60;;;;;;5080180;28;20111;-41
2024/02/24 04:14:37;;;;;;;0.65;0.55;;;22.20;45.60;;;;;;5075588;28;20029;-41
2024/02/24 04:17:03;;;;;;;0.95;0.65;;;22.20;45.50;;;;;;5078096;28;20036;-43
2024/02/24 04:19:29;;;;;;;0.82;0.60;;;22.20;45.50;;;;;;5082656;28;20095;-40
2024/02/24 04:21:55;;;;;;;0.65;0.65;;;22.20;45.50;;;;;;5078919;28;20025;-41
2024/02/24 04:24:21;;;;;;;0.70;0.60;;;22.20;45.50;;;;;;5080091;28;20036;-40
2024/02/24 04:26:47;;;;;;;1.17;0.70;;;22.20;45.50;;;;;;5071702;28;20565;-41
2024/02/24 04:29:13;;;;;;;0.75;0.57;;;22.20;45.50;;;;;;5077274;28;20029;-41
2024/02/24 04:31:40;;;;;;;0.65;0.50;;;22.20;45.50;;;;;;5074884;28;20095;-40
2024/02/24 04:34:06;;;;;;;0.60;0.60;;;22.20;45.50;;;;;;5078538;28;20059;-40
2024/02/24 04:36:32;;;;;;;1.60;0.60;;;22.20;45.50;;;;;;5082466;28;20028;-38
2024/02/24 04:38:58;;;;;;;0.80;0.70;;;22.10;45.40;;;;;;5082457;28;20041;-40
2024/02/24 04:41:24;;;;;;;0.82;0.60;;;22.10;45.40;;;;;;5082598;28;20382;-41
2024/02/24 04:43:51;;;;;;;1.25;0.70;;;22.20;45.50;;;;;;5082437;28;20037;-41
2024/02/24 04:46:17;;;;;;;0.90;0.80;;;22.20;45.50;;;;;;5072126;28;20047;-40
2024/02/24 04:48:43;;;;;;;1.20;0.50;;;22.20;45.40;;;;;;5078242;28;20043;-39
2024/02/24 04:51:09;;;;;;;1.08;0.60;;;22.20;45.30;;;;;;5077858;28;20024;-39
2024/02/24 04:53:35;;;;;;;0.60;0.60;;;22.20;45.30;;;;;;5076996;28;20082;-39
2024/02/24 04:56:02;;;;;;;0.60;0.40;;;22.10;45.30;;;;;;5079173;28;20021;-41
2024/02/24 04:58:28;;;;;;;0.93;0.60;;;22.10;45.30;;;;;;5074895;28;20048;-39
2024/02/24 05:00:54;;;;;;;1.17;0.80;;;22.10;45.30;;;;;;5080836;28;20036;-41
2024/02/24 05:03:20;;;;;;;2.92;0.70;;;22.20;45.40;;;;;;5082724;28;20028;-41
2024/02/24 05:05:46;;;;;;;0.70;0.60;;;22.20;45.40;;;;;;5068407;28;20044;-41
2024/02/24 05:08:12;;;;;;;0.80;0.50;;;22.20;45.40;;;;;;5081335;28;20039;-38
2024/02/24 05:10:38;;;;;;;0.70;0.60;;;22.10;45.30;;;;;;5075252;28;20021;-42
2024/02/24 05:13:04;;;;;;;2.33;0.60;;;22.10;45.30;;;;;;5081793;28;20040;-41
2024/02/24 05:15:31;;;;;;;1.45;0.70;;;22.10;45.40;;;;;;5080589;28;20021;-41
2024/02/24 05:17:57;;;;;;;1.38;0.65;;;22.10;45.40;;;;;;5076826;28;20040;-41
2024/02/24 05:20:23;;;;;;;1.15;0.60;;;22.20;45.50;;;;;;5075562;28;20532;-41
2024/02/24 05:22:49;;;;;;;0.80;0.60;;;22.20;45.50;;;;;;5080888;28;20056;-40
2024/02/24 05:25:16;;;;;;;1.45;0.50;;;22.20;45.50;;;;;;5081220;28;20029;-40
2024/02/24 05:27:43;;;;;;;1.48;0.50;;;22.10;45.30;;;;;;5060686;28;20087;-40
2024/02/24 05:30:09;;;;;;;2.28;0.52;;;22.10;45.90;;;;;;5069758;28;20049;-41
2024/02/24 05:32:35;;;;;;;1.17;0.50;;;22.10;45.30;;;;;;5064455;28;20546;-41
2024/02/24 05:35:01;;;;;;;0.45;0.30;;;22.10;45.30;;;;;;5064441;28;20043;-41
2024/02/24 05:37:27;;;;;;;0.50;0.50;;;22.20;45.30;;;;;;5062102;28;20025;-41
2024/02/24 05:39:54;;;;;;;0.50;0.50;;;22.20;45.30;;;;;;5061896;28;20061;-40
2024/02/24 05:42:20;;;;;;;0.70;0.43;;;22.10;45.20;;;;;;5071240;28;20024;-44
2024/02/24 05:44:46;;;;;;;0.55;0.50;;;22.10;45.20;;;;;;5069894;28;20120;-41
2024/02/24 05:47:12;;;;;;;0.52;0.40;;;22.10;45.20;;;;;;5081339;28;20025;-40
2024/02/24 05:49:40;;;;;;;1.02;0.40;;;22.10;45.20;;;;;;5073780;28;20023;-43
2024/02/24 05:52:06;;;;;;;0.55;0.52;;;22.10;45.20;;;;;;5081377;28;20067;-41
2024/02/24 05:54:32;;;;;;;0.52;0.40;;;22.10;45.20;;;;;;5081379;28;20021;-41
2024/02/24 05:56:58;;;;;;;0.55;0.50;;;22.10;45.20;;;;;;5077708;28;20024;-41
2024/02/24 05:59:24;;;;;;;0.40;0.40;;;22.10;45.10;;;;;;5075373;28;20037;-41
2024/02/24 06:01:50;;;;;;;0.68;0.57;;;22.10;45.10;;;;;;5079639;28;20767;-39
2024/02/24 06:04:17;;;;;;;0.50;0.50;;;22.10;45.10;;;;;;5059485;28;20120;-41
2024/02/24 06:06:46;;;;;;;0.35;0.32;;;22.10;45.10;;;;;;5079589;28;20044;-41
2024/02/24 06:09:12;;;;;;;0.68;0.50;;;22.10;45.20;;;;;;5080817;28;20036;-39
2024/02/24 06:11:38;;;;;;;0.40;0.40;;;22.10;45.10;;;;;;5075269;28;20028;-40
2024/02/24 06:14:04;;;;;;;0.47;0.30;;;22.10;45.10;;;;;;5081775;28;20497;-40
2024/02/24 06:16:30;;;;;;;0.60;0.40;;;22.10;45.10;;;;;;5081158;28;20028;-42
2024/02/24 06:18:56;;;;;;;0.30;0.30;;;22.10;45.10;;;;;;5073731;28;20043;-41
2024/02/24 06:21:23;;;;;;;0.30;0.30;;;22.00;45.10;;;;;;5081526;28;20025;-42
2024/02/24 06:23:49;;;;;;;0.32;0.32;;;22.10;45.10;;;;;;5073580;28;20041;-40
2024/02/24 06:26:15;;;;;;;0.45;0.35;;;22.10;45.20;;;;;;5076779;28;20024;-40
2024/02/24 06:28:42;;;;;;;0.60;0.40;;;22.10;45.20;;;;;;5083813;28;20036;-40
2024/02/24 06:31:08;;;;;;;0.55;0.40;;;22.10;45.10;;;;;;5072079;28;20058;-39
2024/02/24 06:33:35;;;;;;;0.40;0.40;;;22.10;45.10;;;;;;5084770;28;20047;-40
2024/02/24 06:36:02;;;;;;;0.53;0.50;;;22.00;45.00;;;;;;5084423;28;20028;-40
2024/02/24 06:38:29;;;;;;;0.60;0.40;;;22.00;45.10;;;;;;5085441;28;20327;-40
2024/02/24 06:40:55;;;;;;;2.03;0.40;;;22.00;45.10;;;;;;5081344;28;20863;-41
2024/02/24 06:43:21;;;;;;;0.43;0.32;;;22.10;45.20;;;;;;5074018;28;20093;-39
2024/02/24 06:46:09;;;;;;;0.73;0.50;;;22.10;45.20;;;;;;5071138;28;20040;-41
2024/02/24 06:48:35;;;;;;;0.40;0.30;;;22.10;45.10;;;;;;5009741;28;20049;-41
2024/02/24 06:51:02;;;;;;;0.47;0.40;;;22.10;45.10;;;;;;5007150;28;20038;-39
2024/02/24 06:53:28;;;;;;;0.30;0.30;;;22.00;45.00;;;;;;5006231;28;20194;-40
2024/02/24 06:55:54;;;;;;;0.50;0.40;;;22.00;45.10;;;;;;5011292;28;20133;-41
2024/02/24 06:58:21;;;;;;;0.47;0.35;;;22.00;45.10;;;;;;5011350;28;20089;-40
2024/02/24 07:00:47;;;;;;;0.40;0.32;;;22.10;45.20;;;;;;5011814;28;20038;-40
2024/02/24 07:03:14;;;;;;;0.40;0.20;;;22.10;45.20;;;;;;5010244;28;20058;-42
2024/02/24 07:05:42;;;;;;;0.30;0.30;;;22.10;45.20;;;;;;5004909;28;20049;-37
2024/02/24 07:08:07;;;;;;;;;;;22.00;45.10;;;;;;5008434;28;20061;-39
2024/02/24 07:10:34;;;;;;;0.40;0.40;;;22.00;45.10;;;;;;5011587;28;19914;-38
2024/02/24 07:13:00;;;;;;;0.47;0.40;;;22.00;45.10;;;;;;5009082;28;20054;-41
2024/02/24 07:15:26;;;;;;;0.40;0.40;;;22.00;45.20;;;;;;5005227;28;20022;-40
2024/02/24 07:17:52;;;;;;;0.43;0.30;;;22.10;45.20;;;;;;5009607;28;20037;-40
2024/02/24 07:20:18;;;;;;;0.30;0.20;;;22.10;45.20;;;;;;5010830;28;20042;-41
2024/02/24 07:22:48;;;;;;;0.77;0.38;;;22.00;45.10;;;;;;5011735;28;20022;-41
2024/02/24 07:25:15;;;;;;;0.45;0.30;;;22.00;45.10;;;;;;5031985;28;20045;-39
2024/02/24 07:27:41;;;;;;;;;;;22.00;45.10;;;;;;5068440;28;20021;-41
2024/02/24 07:30:08;;;;;;;0.38;0.30;;;22.00;45.20;;;;;;5077688;28;19923;-40
2024/02/24 07:32:34;;;;;;;0.40;0.40;;;22.00;45.20;;;;;;5072534;28;20083;-41
2024/02/24 07:35:00;;;;;;;0.57;0.40;;;22.00;45.20;;;;;;5072724;28;20028;-41
2024/02/24 07:37:26;;;;;;;0.45;0.30;;;22.00;45.20;;;;;;5074637;28;20119;-40
2024/02/24 07:39:52;;;;;;;0.30;0.30;;;22.00;45.20;;;;;;5069943;28;20048;-40
2024/02/24 07:42:20;;;;;;;0.90;0.30;;;22.00;45.20;;;;;;5078751;28;20040;-40
2024/02/24 07:44:46;;;;;;;0.30;0.30;;;21.90;45.10;;;;;;5078879;28;20025;-39
2024/02/24 07:47:12;;;;;;;0.40;0.30;;;21.90;45.20;;;;;;5071651;28;20048;-41
2024/02/24 07:49:39;;;;;;;0.57;0.30;;;22.00;45.30;;;;;;5069622;28;20029;-40
2024/02/24 07:52:06;;;;;;;;;;;22.00;45.20;;;;;;5070599;28;20083;-42
2024/02/24 07:54:32;;;;;;;0.30;0.28;;;22.00;45.20;;;;;;5071673;28;19915;-39
2024/02/24 07:56:58;;;;;;;0.43;0.32;;;22.00;45.20;;;;;;5075914;28;20032;-40
2024/02/24 07:59:24;;;;;;;1.80;0.32;;;22.00;45.20;;;;;;5075942;28;20032;-41
2024/02/24 08:01:50;;;;;;;0.30;0.30;;;21.90;45.10;;;;;;5077203;28;20025;-41
2024/02/24 08:04:16;;;;;;;0.30;0.20;;;21.90;45.20;;;;;;5071434;28;20043;-39
2024/02/24 08:06:43;;;;;;;0.50;0.32;;;22.00;45.30;;;;;;5063407;28;20783;-40
2024/02/24 08:09:09;;;;;;;0.45;0.30;;;22.00;45.20;;;;;;5054936;28;20021;-40
2024/02/24 08:11:39;;;;;;;0.43;0.30;;;22.00;45.20;;;;;;5056668;28;20021;-39
2024/02/24 08:14:08;;;;;;;0.30;0.30;;;22.00;45.10;;;;;;5056563;28;20063;-40
2024/02/24 08:16:35;;;;;;;0.30;0.30;;;21.90;45.10;;;;;;5056424;28;20048;-38
2024/02/24 08:19:01;;;;;;;0.10;0.10;;;21.90;45.10;;;;;;5053066;28;20052;-41
2024/02/24 08:21:31;;;;;;;0.30;0.30;;;21.90;45.10;;;;;;5050044;28;20500;-40
2024/02/24 08:23:57;;;;;;;0.30;0.30;;;22.00;45.20;;;;;;5047251;28;20136;-41
2024/02/24 08:26:23;;;;;;;0.73;0.20;;;22.00;45.20;;;;;;5050187;28;20060;-41
2024/02/24 08:28:49;;;;;;;0.30;0.30;;;21.90;45.10;;;;;;5049586;28;20037;-40
2024/02/24 08:31:15;;;;;;;0.25;0.25;;;21.90;45.10;;;;;;5049671;28;20033;-41
2024/02/24 08:33:42;;;;;;;0.35;0.20;;;21.90;45.10;;;;;;5055127;28;20032;-38
2024/02/24 08:36:08;;;;;;;0.20;0.20;;;21.90;45.20;;;;;;5052850;28;20041;-41
2024/02/24 08:38:34;;;;;;;0.43;0.20;;;21.90;45.20;;;;;;5050443;28;20040;-40
2024/02/24 08:41:01;;;;;;;0.30;0.30;;;22.00;45.30;;;;;;5046308;28;20159;-40
2024/02/24 08:43:27;;;;;;;0.22;0.22;;;22.00;45.30;;;;;;5051426;28;20033;-40
2024/02/24 08:45:53;;;;;;;0.52;0.40;;;21.90;45.30;;;;;;5058015;28;20414;-40
2024/02/24 08:48:19;;;;;;;0.30;0.30;;;21.90;45.30;;;;;;5049387;28;20033;-41
2024/02/24 08:50:45;;;;;;;3.20;0.30;;;21.90;45.30;;;;;;5061800;28;20604;-41
2024/02/24 08:53:11;;;;;;;0.20;0.20;;;21.90;45.40;;;;;;5055741;28;20056;-41
2024/02/24 08:55:38;;;;;;;0.82;0.28;;;21.90;45.40;;;;;;5062587;28;20131;-39
2024/02/24 08:58:04;;;;;;;0.40;0.30;;;21.90;45.40;;;;;;5061256;28;20552;-41
2024/02/24 09:00:31;;;;;;;0.70;0.30;;;21.90;45.30;;;;;;5062175;28;20037;-40
2024/02/24 09:02:57;;;;;;;0.40;0.30;;;21.90;45.30;;;;;;5059865;28;20028;-40
2024/02/24 09:05:23;;;;;;;0.43;0.40;;;21.90;45.30;;;;;;5058366;28;20041;-40
2024/02/24 09:07:49;;;;;;;0.40;0.30;;;21.80;45.30;;;;;;5082005;28;20119;-40
2024/02/24 09:10:15;;;;;;;0.30;0.25;;;21.80;45.40;;;;;;5082242;28;20054;-40
2024/02/24 09:12:41;;;;;;;0.35;0.30;;;21.90;45.40;;;;;;5082033;28;20047;-44
2024/02/24 09:15:07;;;;;;;0.32;0.30;;;21.90;45.40;;;;;;5075612;28;20047;-37
2024/02/24 09:17:34;;;;;;;0.60;0.30;;;21.90;45.40;;;;;;5081960;28;20024;-41
2024/02/24 09:20:00;;;;;;;1.00;0.43;;;21.90;45.30;;;;;;5081979;28;20086;-40
2024/02/24 09:22:26;;;;;;;0.30;0.30;;;21.90;45.30;;;;;;5075909;28;20099;-39
2024/02/24 09:24:52;;;;;;;0.45;0.22;;;21.80;45.30;;;;;;5080390;28;20032;-41
2024/02/24 09:27:18;;;;;;;0.30;0.30;;;21.80;45.40;;;;;;5081384;28;20028;-40
2024/02/24 09:29:45;;;;;;;0.70;0.30;;;21.80;45.40;;;;;;5079867;28;20080;-41
2024/02/24 09:32:12;;;;;;;0.30;0.30;;;21.90;46.00;;;;;;5081148;28;20116;-41
2024/02/24 09:34:39;;;;;;;0.47;0.20;;;21.90;45.40;;;;;;5081238;28;20020;-46
2024/02/24 09:37:05;;;;;;;0.25;0.20;;;21.90;45.30;;;;;;5081285;28;20032;-40
2024/02/24 09:39:31;;;;;;;0.45;0.30;;;21.80;45.30;;;;;;5082212;28;20099;-42
2024/02/24 09:42:01;;;;;;;0.43;0.38;;;21.80;45.30;;;;;;5078911;28;20044;-44
2024/02/24 09:44:31;;;;;;;0.32;0.30;;;21.80;45.40;;;;;;5074074;28;20096;-41
2024/02/24 09:47:00;;;;;;;1.33;0.38;;;21.80;45.40;;;;;;5075848;28;20565;-39
2024/02/24 09:49:30;;;;;;;0.75;0.40;;;21.90;45.40;;;;;;5078758;28;20029;-41
2024/02/24 09:52:00;;;;;;;0.40;0.35;;;21.90;45.40;;;;;;5082083;28;20471;-40
2024/02/24 09:54:27;;;;;;;0.30;0.30;;;21.80;45.30;;;;;;5081639;28;20036;-41
2024/02/24 09:56:54;;;;;;;0.57;0.30;;;21.80;45.40;;;;;;5079073;28;20036;-41
2024/02/24 09:59:24;;;;;;;0.40;0.38;;;21.70;45.30;;;;;;5063826;28;20045;-41
2024/02/24 10:01:50;;;;;;;0.25;0.20;;;21.80;46.00;;;;;;5058326;28;20080;-41
2024/02/24 10:04:17;;;;;;;0.95;0.40;;;21.80;45.40;;;;;;5082438;28;20048;-40
2024/02/24 10:06:43;;;;;;;;;;;21.80;45.30;;;;;;5068223;28;20052;-40
2024/02/24 10:09:11;;;;;;;1.17;0.25;;;21.80;45.30;;;;;;5062109;28;19909;-40
2024/02/24 10:11:38;;;;;;;0.40;0.32;;;21.80;45.30;;;;;;5059783;28;20029;-40
2024/02/24 10:14:05;;;;;;;0.40;0.30;;;21.70;45.30;;;;;;5042836;28;20029;-40
2024/02/24 10:16:35;;;;;;;0.20;0.20;;;21.80;45.40;;;;;;5055285;28;20036;-38
2024/02/24 10:19:03;;;;;;;0.50;0.25;;;21.80;45.40;;;;;;5061052;28;20911;-40
2024/02/24 10:21:29;;;;;;;0.22;0.20;;;21.80;45.40;;;;;;5061314;28;20025;-40
2024/02/24 10:23:55;;;;;;;0.30;0.28;;;21.80;45.30;;;;;;5060667;28;20029;-39
2024/02/24 10:26:23;;;;;;;0.55;0.40;;;21.80;45.30;;;;;;5060746;28;20544;-41
2024/02/24 10:28:50;;;;;;;0.82;0.30;;;21.70;45.30;;;;;;5043780;28;20096;-40
2024/02/24 10:31:16;;;;;;;0.65;0.30;;;21.70;45.30;;;;;;5061697;28;20036;-39
2024/02/24 10:33:42;;;;;;;0.35;0.30;;;21.80;45.40;;;;;;5043056;28;20029;-39
2024/02/24 10:36:09;;;;;;;9.63;0.63;;;21.80;45.40;;;;;;5061278;28;20029;-41
2024/02/24 10:38:35;;;;;;;0.47;0.35;;;21.80;45.40;;;;;;5042419;28;20033;-40
2024/02/24 10:41:01;;;;;;;0.52;0.32;;;21.80;45.40;;;;;;5033959;28;20041;-38
2024/02/24 10:43:28;;;;;;;0.20;0.20;;;21.70;45.30;;;;;;5059385;28;20079;-40
2024/02/24 10:45:54;;;;;;;;;;;21.70;45.30;;;;;;5061116;28;20041;-41
2024/02/24 10:48:21;;;;;;;0.45;0.20;;;21.70;45.40;;;;;;5061219;28;19916;-39
2024/02/24 10:50:47;;;;;;;0.57;0.43;;;21.80;45.40;;;;;;5060617;28;20029;-39
2024/02/24 10:53:14;;;;;;;1.08;0.30;;;21.80;45.40;;;;;;5059962;28;20058;-41
2024/02/24 10:55:40;;;;;;;0.47;0.30;;;21.80;45.30;;;;;;5035172;28;20029;-45
2024/02/24 10:58:06;;;;;;;1.40;0.30;;;21.70;45.30;;;;;;5020580;28;20101;-41
2024/02/24 11:00:35;;;;;;;0.35;0.30;;;21.70;45.30;;;;;;5054059;28;20041;-40
2024/02/24 11:03:03;;;;;;;0.40;0.30;;;21.70;45.40;;;;;;5060437;28;20047;-40
2024/02/24 11:05:30;;;;;;;0.52;0.30;;;21.70;45.30;;;;;;5045462;28;20065;-40
2024/02/24 11:07:56;;;;;;;0.40;0.30;;;21.80;45.40;;;;;;5080077;28;20032;-41
2024/02/24 11:10:22;;;;;;;0.30;0.20;;;21.80;45.40;;;;;;5082935;28;20044;-40
2024/02/24 11:12:51;;;;;;;0.47;0.30;;;21.70;45.30;;;;;;5082983;28;20070;-41
2024/02/24 11:15:18;;;;;;;0.15;0.15;;;21.70;45.30;;;;;;5084887;28;20078;-40
2024/02/24 11:17:50;;;;;;;0.20;0.20;;;21.70;45.30;;;;;;5083583;28;20027;-40
2024/02/24 11:20:35;;;;;;;0.30;0.30;;;21.70;45.30;;;;;;5083015;28;20037;-41
2024/02/24 11:23:24;;;;;;;0.20;0.20;;;21.80;45.40;;;;;;5083926;28;20033;-41
2024/02/24 11:26:10;;;;;;;0.40;0.30;;;21.80;45.30;;;;;;5084437;28;20036;-40
2024/02/24 11:28:40;;;;;;;0.40;0.30;;;21.70;45.20;;;;;;5083602;28;20025;-40
2024/02/24 11:31:06;;;;;;;0.30;0.20;;;21.70;45.30;;;;;;5084502;28;20033;-41
2024/02/24 11:33:37;;;;;;;0.33;0.20;;;21.70;45.30;;;;;;5065660;28;20028;-39
2024/02/24 11:36:04;;;;;;;0.52;0.40;;;21.70;45.30;;;;;;5084347;28;20036;-41
2024/02/24 11:38:31;;;;;;;0.40;0.30;;;21.70;45.30;;;;;;5084266;28;20037;-40
2024/02/24 11:40:57;;;;;;;0.30;0.30;;;21.80;45.30;;;;;;5083924;28;20036;-40
2024/02/24 11:43:23;;;;;;;0.30;0.30;;;21.70;45.30;;;;;;5083645;28;20084;-39
2024/02/24 11:45:50;;;;;;;0.30;0.22;;;21.70;45.20;;;;;;5081604;28;20064;-40
2024/02/24 11:48:16;;;;;;;;;;;21.70;45.20;;;;;;5081167;28;20066;-41
2024/02/24 11:50:42;;;;;;;0.20;0.20;;;21.70;45.30;;;;;;5078700;28;20278;-40
2024/02/24 11:53:10;;;;;;;0.40;0.40;;;21.70;45.30;;;;;;5078986;28;20531;-40
2024/02/24 11:55:36;;;;;;;0.30;0.30;;;21.70;45.30;;;;;;5076076;28;20028;-39
2024/02/24 11:58:07;;;;;;;0.40;0.28;;;21.70;45.20;;;;;;5083330;28;20047;-41
2024/02/24 12:00:37;;;;;;;0.28;0.28;;;21.70;45.20;;;;;;5072440;28;20033;-40
2024/02/24 12:03:14;;;;;;;0.75;0.30;;;21.70;45.20;;;;;;5080344;28;20025;-38
2024/02/24 12:05:40;;;;;;;0.30;0.30;;;21.60;45.20;;;;;;5077241;28;20045;-40
2024/02/24 12:08:09;;;;;;;0.30;0.30;;;21.70;45.30;;;;;;5083879;28;20048;-40
2024/02/24 12:10:38;;;;;;;0.40;0.30;;;21.70;45.20;;;;;;5081505;28;20403;-40
2024/02/24 12:13:06;;;;;;;0.30;0.20;;;21.70;45.20;;;;;;5065848;28;20035;-41
2024/02/24 12:15:36;;;;;;;0.85;0.40;;;21.70;45.20;;;;;;5065701;28;20044;-41
2024/02/24 12:18:04;;;;;;;0.22;0.20;;;21.70;45.10;;;;;;5083026;28;20074;-41
2024/02/24 12:20:30;;;;;;;0.50;0.30;;;21.60;45.20;;;;;;5048196;28;20052;-40
2024/02/24 12:23:04;;;;;;;0.82;0.40;;;21.70;45.20;;;;;;5073595;28;20500;-38
2024/02/24 12:25:30;;;;;;;0.30;0.22;;;21.70;45.20;;;;;;5081550;28;20430;-40
2024/02/24 12:27:56;;;;;;;0.40;0.40;;;21.70;45.20;;;;;;5083001;28;20051;-38
2024/02/24 12:30:22;;;;;;;0.40;0.30;;;21.70;45.20;;;;;;5078613;28;20043;-41
2024/02/24 12:32:49;;;;;;;0.20;0.20;;;21.70;45.10;;;;;;5083304;28;20028;-40
2024/02/24 12:35:15;;;;;;;0.40;0.40;;;21.60;45.10;;;;;;5082599;28;20025;-41
2024/02/24 12:37:44;;;;;;;0.60;0.40;;;21.60;45.10;;;;;;5082247;28;20047;-41
2024/02/24 12:40:30;;;;;;;0.40;0.30;;;21.70;45.20;;;;;;5061260;28;20104;-40
2024/02/24 12:42:57;;;;;;;1.05;0.30;;;21.70;45.20;;;;;;5081601;28;20020;-40
2024/02/24 12:45:23;;;;;;;0.30;0.20;;;21.70;45.20;;;;;;5081738;28;20074;-41